»·PEaware :: AAL3019 KBUR-KPHX

AAL3019 :: KBUR-KPHX

FLIGHT INFORMATION

Flight Status: Arrived
Operator:
American Airlines
More flights by this operator :: More flights under this callsign
Pilot: Andrew C. (28419)
Aircraft: AIRBUS A319
(A319)
More flights by this aircraft type
Origin: KBUR Bob Hope-Burbank
United States
Destination: KPHX Phoenix Sky Harbor Intl
United States
More flights between these airports :: More routes between these airports
Route: +SLAPP2 HEC PRFUM WOTRO BRUSR1
File this flight plan on PilotEdge
Remarks: RMK / SIMBRIEF
Altitude:
(Current/Filed)
39,000ft
Speed:
(Current/Filed)
453kts
Departed: 25-Oct-20 06:04 PM
Arrived: 25-Oct-20 07:15 PM
Distance/Time
Traveled:
320nm/1:11
Distance/Time
To Go:
Arrived

Flight Plot

Page will automatically refresh every two minutes.

Flight plan parsing failed; only flown route is shown


Map Options




Map Legend


Flown Route
Filed Route
Departure Airport
Arrival Airport
Navaid (VOR, NDB)
Fix

Horizontal Profiles

Position Reports

Time Latitude Longitude Heading Altitude Ground
Speed
25-Oct-20 17:33 34.196796 -118.350607 179 785ft 0kts
25-Oct-20 17:34 34.196796 -118.350607 179 785ft 0kts
25-Oct-20 17:35 34.196796 -118.350607 179 785ft 0kts
25-Oct-20 17:36 34.196796 -118.350607 179 785ft 0kts
25-Oct-20 17:37 34.196796 -118.350607 179 785ft 0kts
25-Oct-20 17:38 34.196796 -118.350607 179 785ft 0kts
25-Oct-20 17:39 34.196796 -118.350607 179 785ft 0kts
25-Oct-20 17:40 34.196796 -118.350607 179 785ft 0kts
25-Oct-20 17:41 34.196796 -118.350607 179 785ft 0kts
25-Oct-20 17:42 34.196796 -118.350607 179 785ft 0kts
25-Oct-20 17:43 34.196796 -118.350607 179 785ft 0kts
25-Oct-20 17:44 34.196796 -118.350607 179 785ft 0kts
25-Oct-20 17:45 34.196796 -118.350607 179 785ft 0kts
25-Oct-20 17:46 34.196796 -118.350607 179 785ft 0kts
25-Oct-20 17:47 34.196796 -118.350607 179 785ft 0kts
25-Oct-20 17:48 34.196796 -118.350607 179 785ft 0kts
25-Oct-20 17:49 34.196796 -118.350607 179 785ft 0kts
25-Oct-20 17:50 34.196796 -118.350607 179 785ft 0kts
25-Oct-20 17:51 34.196796 -118.350607 179 785ft 0kts
25-Oct-20 17:52 34.197153 -118.350323 276 786ft 1kts
25-Oct-20 17:53 34.197151 -118.350283 271 785ft 0kts
25-Oct-20 17:54 34.197151 -118.350283 271 785ft 0kts
25-Oct-20 17:55 34.197151 -118.350299 271 785ft 1kts
25-Oct-20 17:56 34.198103 -118.350563 358 785ft 18kts
25-Oct-20 17:57 34.198818 -118.355496 271 785ft 0kts
25-Oct-20 17:58 34.198853 -118.357188 271 785ft 13kts
25-Oct-20 17:59 34.198313 -118.357940 179 785ft 9kts
25-Oct-20 18:00 34.195651 -118.356850 166 785ft 11kts
25-Oct-20 18:01 34.194815 -118.356618 167 785ft 0kts
25-Oct-20 18:02 34.194268 -118.355535 346 785ft 0kts
25-Oct-20 18:03 34.222875 -118.363274 333 1845ft 157kts
25-Oct-20 18:04 34.239301 -118.415371 282 3982ft 216kts
25-Oct-20 18:05 34.295120 -118.461713 26 4025ft 298kts
25-Oct-20 18:06 34.352545 -118.395611 33 8265ft 280kts
25-Oct-20 18:07 34.422471 -118.349983 16 11271ft 309kts
25-Oct-20 18:08 34.505622 -118.290174 35 13048ft 385kts
25-Oct-20 18:09 34.588499 -118.206477 33 16252ft 395kts
25-Oct-20 18:10 34.665546 -118.109298 59 18749ft 410kts
25-Oct-20 18:11 34.689683 -117.979634 74 18934ft 389kts
25-Oct-20 18:12 34.698996 -117.846595 79 20890ft 399kts
25-Oct-20 18:13 34.706452 -117.709245 80 23049ft 414kts
25-Oct-20 18:14 34.711501 -117.573506 80 24914ft 425kts
25-Oct-20 18:15 34.720321 -117.429091 77 26642ft 434kts
25-Oct-20 18:16 34.732594 -117.281294 78 28165ft 445kts
25-Oct-20 18:17 34.744820 -117.129973 78 29561ft 455kts
25-Oct-20 18:18 34.757128 -116.975791 78 30881ft 462kts
25-Oct-20 18:20 34.769107 -116.819292 79 32090ft 467kts
25-Oct-20 18:21 34.781779 -116.660446 79 33023ft 477kts
25-Oct-20 18:22 34.795391 -116.499046 75 33980ft 481kts
25-Oct-20 18:23 34.831417 -116.342404 64 34680ft 484kts
25-Oct-20 18:24 34.876866 -116.188262 65 35674ft 484kts
25-Oct-20 18:25 34.921857 -116.033771 65 36550ft 484kts
25-Oct-20 18:26 34.966678 -115.879056 66 37121ft 489kts
25-Oct-20 18:27 35.011696 -115.722440 66 37786ft 491kts
25-Oct-20 18:28 35.056749 -115.565026 67 38403ft 492kts
25-Oct-20 18:29 35.101763 -115.406812 67 38783ft 495kts
25-Oct-20 18:30 35.147056 -115.248034 68 38789ft 495kts
25-Oct-20 18:31 35.191955 -115.088447 68 38781ft 497kts
25-Oct-20 18:32 35.236607 -114.928699 68 38745ft 499kts
25-Oct-20 18:33 35.281373 -114.767763 68 38724ft 501kts
25-Oct-20 18:34 35.326062 -114.606109 68 38713ft 503kts
25-Oct-20 18:35 35.370795 -114.443290 69 38716ft 505kts
25-Oct-20 18:36 35.414999 -114.281255 69 38726ft 507kts
25-Oct-20 18:37 35.458149 -114.122051 69 38755ft 509kts
25-Oct-20 18:38 35.484946 -113.956890 97 38803ft 510kts
25-Oct-20 18:38 35.444922 -113.824407 129 38836ft 493kts
25-Oct-20 18:40 35.355212 -113.663147 129 38827ft 493kts
25-Oct-20 18:40 35.292219 -113.547371 128 38357ft 486kts
25-Oct-20 18:42 35.205428 -113.388221 128 35478ft 481kts
25-Oct-20 18:42 35.143374 -113.274459 128 32951ft 487kts
25-Oct-20 18:43 35.069006 -113.138131 128 30527ft 476kts
25-Oct-20 18:44 34.996125 -113.006277 128 28487ft 461kts
25-Oct-20 18:45 34.923819 -112.876046 128 28562ft 464kts
25-Oct-20 18:46 34.852038 -112.747682 128 28626ft 462kts
25-Oct-20 18:47 34.780360 -112.619631 127 27050ft 453kts
25-Oct-20 18:48 34.709546 -112.495358 132 25098ft 441kts
25-Oct-20 18:49 34.619806 -112.399039 146 23207ft 424kts
25-Oct-20 18:50 34.530116 -112.311753 146 21722ft 404kts
25-Oct-20 18:51 34.442610 -112.232335 162 20269ft 376kts
25-Oct-20 18:52 34.346282 -112.203630 176 18868ft 347kts
25-Oct-20 18:53 34.253615 -112.180028 175 17442ft 334kts
25-Oct-20 18:54 34.164436 -112.157058 175 15900ft 324kts
25-Oct-20 18:55 34.079728 -112.134007 171 15005ft 295kts
25-Oct-20 18:56 34.002310 -112.102764 169 13561ft 289kts
25-Oct-20 18:57 33.927502 -112.072349 169 12239ft 279kts
25-Oct-20 18:58 33.852419 -112.041977 168 10890ft 286kts
25-Oct-20 18:59 33.777313 -112.011525 168 9519ft 283kts
25-Oct-20 19:00 33.705479 -111.982364 168 9006ft 259kts
25-Oct-20 19:01 33.637366 -111.954938 168 8460ft 256kts
25-Oct-20 19:02 33.572585 -111.928710 168 7328ft 235kts
25-Oct-20 19:03 33.526112 -111.881741 96 7031ft 265kts
25-Oct-20 19:04 33.530122 -111.793349 89 6598ft 264kts
25-Oct-20 19:05 33.536508 -111.706086 88 5504ft 260kts
25-Oct-20 19:06 33.502374 -111.657425 201 4992ft 188kts
25-Oct-20 19:07 33.464824 -111.702728 229 5008ft 194kts
25-Oct-20 19:08 33.441677 -111.756023 263 5000ft 184kts
25-Oct-20 19:09 33.440962 -111.817318 268 3980ft 185kts
25-Oct-20 19:10 33.440894 -111.878741 269 2989ft 177kts
25-Oct-20 19:11 33.440798 -111.927972 267 2139ft 127kts
25-Oct-20 19:12 33.440793 -111.970531 268 1532ft 126kts
25-Oct-20 19:13 33.440839 -112.008013 272 1144ft 53kts
25-Oct-20 19:14 33.439989 -112.010846 184 1144ft 0kts
25-Oct-20 19:15 33.439316 -112.011218 170 1144ft 9kts
25-Oct-20 19:16 33.439011 -112.006216 91 1144ft 23kts
25-Oct-20 19:17 33.438591 -111.998270 150 1144ft 14kts
25-Oct-20 19:18 33.437207 -111.997327 89 1144ft 0kts

Navigation Log

Ident Type
Flight plan parsing failed, navigation log unavailable